createdAt,value
2022-10-14T00:01:19.421Z,13.70
2022-10-14T00:04:26.184Z,13.70
2022-10-14T00:06:55.727Z,13.70
2022-10-14T00:09:23.773Z,13.70
2022-10-14T00:11:59.734Z,13.70
2022-10-14T00:14:43.958Z,13.80
2022-10-14T00:17:46.853Z,13.80
2022-10-14T00:21:48.018Z,13.70
2022-10-14T00:25:10.308Z,13.80
2022-10-14T00:28:25.903Z,13.70
2022-10-14T00:31:24.273Z,13.70
2022-10-14T00:33:52.088Z,13.70
2022-10-14T00:44:28.002Z,13.70
2022-10-14T00:46:57.059Z,13.70
2022-10-14T00:49:32.226Z,13.70
2022-10-14T00:52:19.446Z,13.70
2022-10-14T00:54:57.105Z,13.70
2022-10-14T00:57:32.221Z,13.70
2022-10-14T01:00:14.997Z,13.70
2022-10-14T01:06:37.516Z,13.70
2022-10-14T01:09:29.151Z,13.70
2022-10-14T01:12:45.402Z,13.70
2022-10-14T01:19:17.218Z,13.70
2022-10-14T01:22:09.562Z,13.70
2022-10-14T01:25:07.778Z,13.80
2022-10-14T01:28:40.107Z,13.70
2022-10-14T01:32:09.395Z,13.80
2022-10-14T01:35:03.812Z,13.80
2022-10-14T01:38:14.092Z,13.80
2022-10-14T01:41:05.374Z,13.70
2022-10-14T01:44:00.604Z,13.70
2022-10-14T01:46:43.682Z,13.70
2022-10-14T01:49:40.050Z,13.70
2022-10-14T01:52:28.448Z,13.70
2022-10-14T02:03:12.640Z,13.70
2022-10-14T02:06:42.633Z,13.70
2022-10-14T02:10:47.405Z,13.70
2022-10-14T02:28:02.897Z,13.70
2022-10-14T02:39:51.753Z,13.70
2022-10-14T03:05:12.697Z,13.80
2022-10-14T03:08:28.440Z,13.80
2022-10-14T03:30:56.738Z,13.70
2022-10-14T03:33:49.900Z,13.70
2022-10-14T03:36:21.235Z,13.70
2022-10-14T03:38:57.667Z,13.70
2022-10-14T03:41:40.208Z,13.70
2022-10-14T03:44:10.156Z,13.70
2022-10-14T03:46:41.580Z,13.70
2022-10-14T03:49:10.684Z,13.70
2022-10-14T03:51:47.047Z,13.80
2022-10-14T03:54:22.631Z,13.70
2022-10-14T03:57:16.167Z,13.70
2022-10-14T04:00:05.245Z,13.70
2022-10-14T04:02:45.383Z,13.70
2022-10-14T04:05:25.789Z,13.70
2022-10-14T04:07:52.902Z,13.70
2022-10-14T04:10:19.924Z,13.70
2022-10-14T04:12:53.211Z,13.70
2022-10-14T04:15:27.968Z,13.70
2022-10-14T04:18:13.241Z,13.70
2022-10-14T04:20:42.067Z,13.70
2022-10-14T04:23:09.950Z,13.80
2022-10-14T04:25:40.101Z,13.80
2022-10-14T04:28:07.648Z,13.80
2022-10-14T04:30:48.780Z,13.70
2022-10-14T04:33:21.319Z,13.80
2022-10-14T04:35:49.643Z,13.80
2022-10-14T04:38:24.286Z,13.80
2022-10-14T04:40:56.927Z,13.70
2022-10-14T04:43:24.042Z,13.70
2022-10-14T04:45:51.697Z,13.70
2022-10-14T04:48:24.574Z,13.70
2022-10-14T04:50:53.502Z,13.70
2022-10-14T04:53:33.320Z,13.70
2022-10-14T04:56:15.768Z,13.70
2022-10-14T04:58:53.180Z,13.60
2022-10-14T05:01:20.983Z,13.60
2022-10-14T05:03:48.318Z,13.60
2022-10-14T05:06:17.828Z,13.50
2022-10-14T05:08:45.707Z,13.50
2022-10-14T05:11:13.591Z,13.50
2022-10-14T05:13:46.037Z,13.50
2022-10-14T05:16:13.203Z,13.50
2022-10-14T05:18:40.201Z,13.50
2022-10-14T05:21:10.298Z,13.50
2022-10-14T05:23:47.461Z,13.50
2022-10-14T05:26:14.786Z,13.50
2022-10-14T05:28:42.697Z,13.50
2022-10-14T05:31:10.718Z,13.50
2022-10-14T05:33:45.691Z,13.50
2022-10-14T05:36:12.766Z,13.50
2022-10-14T05:38:39.597Z,13.50
2022-10-14T05:41:06.601Z,13.50
2022-10-14T05:43:33.771Z,13.50
2022-10-14T05:46:03.393Z,13.50
2022-10-14T05:48:35.108Z,13.50
2022-10-14T05:51:03.306Z,13.40
2022-10-14T05:53:32.832Z,13.50
2022-10-14T05:56:09.081Z,13.50
2022-10-14T05:58:38.689Z,13.50
2022-10-14T06:01:09.891Z,13.50
2022-10-14T06:03:39.997Z,13.50
2022-10-14T06:06:25.309Z,13.50
2022-10-14T06:08:56.387Z,13.60
2022-10-14T06:11:23.318Z,13.60
2022-10-14T06:13:50.463Z,13.50
2022-10-14T06:16:17.470Z,13.60
2022-10-14T06:18:44.297Z,13.60
2022-10-14T06:21:12.494Z,13.60
2022-10-14T06:23:39.337Z,13.60
2022-10-14T06:26:08.912Z,13.60
2022-10-14T06:28:37.327Z,13.60
2022-10-14T06:31:09.931Z,13.60
2022-10-14T06:33:36.721Z,13.60
2022-10-14T06:36:05.988Z,13.60
2022-10-14T06:38:33.146Z,13.60
2022-10-14T06:41:00.059Z,13.60
2022-10-14T06:43:27.553Z,13.70
2022-10-14T06:45:57.792Z,13.70
2022-10-14T06:48:24.660Z,13.60
2022-10-14T06:50:52.090Z,13.60
2022-10-14T06:53:19.018Z,13.60
2022-10-14T06:55:46.287Z,13.60
2022-10-14T06:58:13.121Z,13.70
2022-10-14T07:00:42.204Z,13.70
2022-10-14T07:03:12.546Z,13.70
2022-10-14T07:05:39.543Z,13.70
2022-10-14T07:08:07.327Z,13.70
2022-10-14T07:10:35.960Z,13.70
2022-10-14T07:13:03.150Z,13.80
2022-10-14T07:15:35.258Z,13.80
2022-10-14T07:18:05.382Z,13.80
2022-10-14T07:20:34.035Z,13.80
2022-10-14T07:23:00.893Z,13.90
2022-10-14T07:25:27.724Z,13.90
2022-10-14T07:27:54.637Z,13.90
2022-10-14T07:30:21.513Z,13.90
2022-10-14T07:32:48.367Z,13.90
2022-10-14T07:35:15.427Z,13.90
2022-10-14T07:37:42.656Z,13.90
2022-10-14T07:40:10.878Z,13.90
2022-10-14T07:42:38.383Z,13.90
2022-10-14T07:45:07.230Z,13.90
2022-10-14T07:47:34.043Z,13.90
2022-10-14T07:50:02.205Z,13.90
2022-10-14T07:52:29.254Z,13.90
2022-10-14T07:54:56.080Z,13.90
2022-10-14T07:57:24.243Z,13.90
2022-10-14T07:59:52.516Z,14.00
2022-10-14T08:02:19.678Z,13.90
2022-10-14T08:04:47.326Z,14.00
2022-10-14T08:07:16.893Z,14.00
2022-10-14T08:09:43.740Z,14.00
2022-10-14T08:12:10.634Z,14.10
2022-10-14T08:14:37.802Z,14.10
2022-10-14T08:17:04.679Z,14.10
2022-10-14T08:19:31.724Z,14.20
2022-10-14T08:21:58.547Z,14.20
2022-10-14T08:24:25.338Z,14.20
2022-10-14T08:26:58.057Z,14.30
2022-10-14T08:29:26.294Z,14.30
2022-10-14T08:31:55.139Z,14.30
2022-10-14T08:34:24.191Z,14.30
2022-10-14T08:36:51.803Z,14.40
2022-10-14T08:39:20.130Z,14.40
2022-10-14T08:42:17.956Z,14.50
2022-10-14T08:44:50.859Z,14.50
2022-10-14T08:47:26.617Z,14.60
2022-10-14T08:50:02.545Z,14.60
2022-10-14T08:52:39.075Z,14.60
2022-10-14T08:55:36.641Z,14.70
2022-10-14T08:58:28.454Z,14.70
2022-10-14T09:00:56.428Z,14.80
2022-10-14T09:03:33.038Z,14.80
2022-10-14T09:06:35.017Z,14.90
2022-10-14T09:09:17.108Z,15.00
2022-10-14T09:11:51.420Z,15.00
2022-10-14T09:14:25.050Z,15.00
2022-10-14T09:17:05.759Z,15.00
2022-10-14T09:19:44.380Z,15.00
2022-10-14T09:22:15.382Z,15.00
2022-10-14T09:24:48.345Z,15.10
2022-10-14T09:27:23.185Z,15.10
2022-10-14T09:30:01.481Z,15.20
2022-10-14T09:32:41.318Z,15.20
2022-10-14T09:35:33.669Z,15.40
2022-10-14T09:38:00.896Z,15.50
2022-10-14T09:40:36.105Z,15.50
2022-10-14T09:43:21.044Z,15.60
2022-10-14T09:46:10.906Z,15.60
2022-10-14T09:48:49.102Z,15.60
2022-10-14T09:51:33.683Z,15.70
2022-10-14T09:54:04.613Z,15.70
2022-10-14T09:56:41.843Z,15.60
2022-10-14T09:59:21.971Z,15.60
2022-10-14T10:01:59.220Z,15.60
2022-10-14T10:04:32.275Z,15.70
2022-10-14T10:07:05.721Z,15.60
2022-10-14T10:09:34.496Z,15.70
2022-10-14T10:12:27.196Z,15.70
2022-10-14T10:15:04.730Z,15.70
2022-10-14T10:17:40.487Z,15.70
2022-10-14T10:20:28.554Z,15.70
2022-10-14T10:22:56.693Z,15.70
2022-10-14T10:25:27.961Z,15.80
2022-10-14T10:27:59.338Z,15.80
2022-10-14T10:30:32.150Z,15.80
2022-10-14T10:33:50.440Z,15.80
2022-10-14T10:36:50.905Z,15.80
2022-10-14T10:39:40.595Z,15.80
2022-10-14T10:42:27.130Z,15.70
2022-10-14T10:45:23.321Z,15.70
2022-10-14T10:48:14.621Z,15.70
2022-10-14T10:50:49.799Z,15.70
2022-10-14T10:53:45.929Z,15.70
2022-10-14T10:56:41.435Z,15.70
2022-10-14T10:59:30.229Z,15.70
2022-10-14T11:02:13.845Z,15.80
2022-10-14T11:05:04.571Z,15.80
2022-10-14T11:08:18.923Z,15.80
2022-10-14T11:11:17.268Z,15.80
2022-10-14T11:14:03.355Z,15.90
2022-10-14T11:17:03.988Z,15.90
2022-10-14T11:19:49.099Z,15.90
2022-10-14T11:22:38.762Z,15.90
2022-10-14T11:25:51.062Z,15.90
2022-10-14T11:28:38.390Z,15.90
2022-10-14T11:31:26.787Z,15.90
2022-10-14T11:34:33.499Z,15.80
2022-10-14T11:37:25.250Z,15.70
2022-10-14T11:40:21.382Z,15.70
2022-10-14T11:43:53.158Z,15.60
2022-10-14T11:46:24.700Z,15.60
2022-10-14T11:49:48.594Z,15.60
2022-10-14T11:52:35.921Z,15.50
2022-10-14T11:55:16.840Z,15.60
2022-10-14T11:57:58.106Z,15.60
2022-10-14T12:00:56.932Z,15.60
2022-10-14T12:03:43.765Z,15.60
2022-10-14T12:06:21.866Z,15.50
2022-10-14T12:09:14.636Z,15.50
2022-10-14T12:12:01.616Z,15.50
2022-10-14T12:14:51.933Z,15.50
2022-10-14T12:17:34.084Z,15.50
2022-10-14T12:20:17.952Z,15.50
2022-10-14T12:22:48.828Z,15.50
2022-10-14T12:25:23.699Z,15.50
2022-10-14T12:27:52.267Z,15.50
2022-10-14T12:30:41.388Z,15.50
2022-10-14T12:33:13.568Z,15.50
2022-10-14T12:35:52.731Z,15.50
2022-10-14T12:38:22.623Z,15.50
2022-10-14T12:40:49.558Z,15.50
2022-10-14T12:43:26.462Z,15.50
2022-10-14T12:46:15.600Z,15.50
2022-10-14T12:48:50.691Z,15.50
2022-10-14T12:51:21.421Z,15.60
2022-10-14T12:54:05.791Z,15.50
2022-10-14T12:56:39.602Z,15.60
2022-10-14T12:59:25.397Z,15.50
2022-10-14T13:02:04.676Z,15.60
2022-10-14T13:04:32.873Z,15.60
2022-10-14T13:07:46.608Z,15.60
2022-10-14T13:10:45.221Z,15.60
2022-10-14T13:13:58.227Z,15.60
2022-10-14T13:16:25.006Z,15.60
2022-10-14T13:18:57.877Z,15.70
2022-10-14T13:21:36.609Z,15.70
2022-10-14T13:24:27.396Z,15.80
2022-10-14T13:26:54.270Z,15.70
2022-10-14T13:29:26.107Z,15.80
2022-10-14T13:32:33.890Z,15.70
2022-10-14T13:35:31.589Z,15.70
2022-10-14T13:38:05.311Z,15.70
2022-10-14T13:40:38.552Z,15.70
2022-10-14T13:43:28.614Z,15.70
2022-10-14T13:46:09.241Z,15.70
2022-10-14T13:48:45.095Z,15.70
2022-10-14T13:51:35.515Z,15.70
2022-10-14T13:54:21.813Z,15.70
2022-10-14T13:57:48.003Z,15.60
2022-10-14T14:00:40.060Z,15.60
2022-10-14T14:03:30.926Z,15.60
2022-10-14T14:05:59.904Z,15.60
2022-10-14T14:08:42.190Z,15.60
2022-10-14T14:11:19.163Z,15.60
2022-10-14T14:14:06.963Z,15.60
2022-10-14T14:16:42.885Z,15.60
2022-10-14T14:19:31.391Z,15.60
2022-10-14T14:22:16.294Z,15.60
2022-10-14T14:24:43.496Z,15.60
2022-10-14T14:27:21.398Z,15.60
2022-10-14T14:29:51.772Z,15.60
2022-10-14T14:32:32.707Z,15.60
2022-10-14T14:35:13.370Z,15.60
2022-10-14T14:37:56.274Z,15.70
2022-10-14T14:40:30.000Z,15.70
2022-10-14T14:43:03.471Z,15.80
2022-10-14T14:45:37.482Z,15.80
2022-10-14T14:48:10.499Z,15.80
2022-10-14T14:50:43.777Z,15.80
2022-10-14T14:53:15.137Z,15.80
2022-10-14T14:56:07.958Z,15.80
2022-10-14T14:58:58.163Z,15.80
2022-10-14T15:01:29.991Z,15.80
2022-10-14T15:04:12.370Z,15.80
2022-10-14T15:06:51.374Z,15.70
2022-10-14T15:09:35.935Z,15.70
2022-10-14T15:12:12.206Z,15.70
2022-10-14T15:14:51.253Z,15.70
2022-10-14T15:17:37.720Z,15.70
2022-10-14T15:20:04.682Z,15.70
2022-10-14T15:22:44.714Z,15.70
2022-10-14T15:25:23.305Z,15.70
2022-10-14T15:27:55.803Z,15.60
2022-10-14T15:30:34.686Z,15.60
2022-10-14T15:33:15.904Z,15.60
2022-10-14T15:49:42.794Z,15.70
2022-10-14T15:52:18.553Z,15.70
2022-10-14T15:54:48.871Z,15.70
2022-10-14T15:57:16.931Z,15.70
2022-10-14T15:59:47.791Z,15.70
2022-10-14T16:02:22.920Z,15.60
2022-10-14T16:05:18.369Z,15.60
2022-10-14T16:07:39.382Z,15.70
2022-10-14T16:10:08.734Z,15.70
2022-10-14T16:12:35.581Z,15.60
2022-10-14T16:15:03.665Z,15.70
2022-10-14T16:17:31.850Z,15.70
2022-10-14T16:19:58.729Z,15.70
2022-10-14T16:22:25.589Z,15.70
2022-10-14T16:24:52.490Z,15.70
2022-10-14T16:27:19.530Z,15.70
2022-10-14T16:29:46.635Z,15.70
2022-10-14T16:32:13.883Z,15.70
2022-10-14T16:34:40.801Z,15.80
2022-10-14T16:37:09.078Z,15.70
2022-10-14T16:39:38.575Z,15.70
2022-10-14T16:42:05.716Z,15.70
2022-10-14T16:44:33.085Z,15.70
2022-10-14T16:47:19.249Z,15.70
2022-10-14T16:49:49.731Z,15.70
2022-10-14T16:52:17.454Z,15.70
2022-10-14T16:54:44.475Z,15.70
2022-10-14T16:57:11.937Z,15.70
2022-10-14T16:59:39.363Z,15.70
2022-10-14T17:02:11.269Z,15.70
2022-10-14T17:04:39.186Z,15.70
2022-10-14T17:07:09.059Z,15.70
2022-10-14T17:09:36.616Z,15.70
2022-10-14T17:12:08.176Z,15.70
2022-10-14T17:14:38.420Z,15.70
2022-10-14T17:17:05.394Z,15.70
2022-10-14T17:19:32.247Z,15.70
2022-10-14T17:22:01.951Z,15.60
2022-10-14T17:24:29.714Z,15.60
2022-10-14T17:26:57.060Z,15.60
2022-10-14T17:29:24.129Z,15.60
2022-10-14T17:31:51.857Z,15.60
2022-10-14T17:34:18.827Z,15.60
2022-10-14T17:36:45.676Z,15.50
2022-10-14T17:39:18.744Z,15.50
2022-10-14T17:41:51.467Z,15.50
2022-10-14T17:44:19.060Z,15.50
2022-10-14T17:46:45.977Z,15.50
2022-10-14T17:49:13.162Z,15.50
2022-10-14T17:51:40.008Z,15.50
2022-10-14T17:54:11.323Z,15.50
2022-10-14T17:56:39.466Z,15.50
2022-10-14T17:59:11.310Z,15.50
2022-10-14T18:04:25.423Z,15.40
2022-10-14T18:06:53.984Z,15.40
2022-10-14T18:09:21.144Z,15.40
2022-10-14T18:14:40.265Z,15.40
2022-10-14T18:17:07.210Z,15.40
2022-10-14T18:19:34.864Z,15.40
2022-10-14T18:22:03.579Z,15.40
2022-10-14T18:24:30.547Z,15.40
2022-10-14T18:26:57.354Z,15.30
2022-10-14T18:29:24.782Z,15.40
2022-10-14T18:34:25.265Z,15.30
2022-10-14T18:36:52.103Z,15.30
2022-10-14T18:39:20.383Z,15.30
2022-10-14T18:41:47.289Z,15.20
2022-10-14T18:44:15.108Z,15.20
2022-10-14T18:46:42.049Z,15.20
2022-10-14T18:49:11.677Z,15.10
2022-10-14T18:51:40.874Z,15.10
2022-10-14T18:54:14.109Z,15.10
2022-10-14T18:56:41.379Z,15.10
2022-10-14T18:59:16.158Z,15.00
2022-10-14T19:01:43.693Z,15.00
2022-10-14T19:04:12.985Z,15.00
2022-10-14T19:06:41.071Z,14.90
2022-10-14T19:09:12.433Z,14.90
2022-10-14T19:11:39.452Z,14.90
2022-10-14T19:14:06.555Z,14.90
2022-10-14T19:16:37.298Z,14.90
2022-10-14T19:19:15.063Z,14.90
2022-10-14T19:21:43.343Z,14.90
2022-10-14T19:24:12.835Z,14.90
2022-10-14T19:26:47.831Z,14.90
2022-10-14T19:29:15.909Z,14.90
2022-10-14T19:31:44.370Z,14.90
2022-10-14T19:34:15.864Z,14.90
2022-10-14T19:36:45.058Z,14.90
2022-10-14T19:39:16.139Z,14.90
2022-10-14T19:41:44.648Z,14.90
2022-10-14T19:44:13.560Z,14.90
2022-10-14T19:46:43.549Z,14.90
2022-10-14T19:49:14.429Z,14.80
2022-10-14T19:51:42.159Z,14.90
2022-10-14T19:54:12.054Z,14.90
2022-10-14T19:56:39.619Z,14.90
2022-10-14T19:59:07.348Z,14.90
2022-10-14T20:01:34.711Z,14.90
2022-10-14T20:04:02.951Z,14.90
2022-10-14T20:06:34.342Z,14.90
2022-10-14T20:09:02.230Z,14.90
2022-10-14T20:11:29.755Z,14.90
2022-10-14T20:13:57.157Z,14.90
2022-10-14T20:16:24.484Z,14.80
2022-10-14T20:18:54.821Z,14.80
2022-10-14T20:21:22.152Z,14.80
2022-10-14T20:23:49.566Z,14.80
2022-10-14T20:26:20.342Z,14.70
2022-10-14T20:28:48.253Z,14.70
2022-10-14T20:31:19.395Z,14.70
2022-10-14T20:33:46.425Z,14.70
2022-10-14T20:36:21.855Z,14.70
2022-10-14T20:38:49.984Z,14.70
2022-10-14T20:41:26.426Z,14.70
2022-10-14T20:43:56.023Z,14.60
2022-10-14T20:46:24.572Z,14.60
2022-10-14T20:48:56.742Z,14.60
2022-10-14T20:51:24.464Z,14.50
2022-10-14T20:54:02.700Z,14.50
2022-10-14T20:56:33.374Z,14.50
2022-10-14T20:59:13.492Z,14.50
2022-10-14T21:01:40.529Z,14.50
2022-10-14T21:04:08.166Z,14.50
2022-10-14T21:06:35.841Z,14.40
2022-10-14T21:09:02.933Z,14.40
2022-10-14T21:11:30.859Z,14.40
2022-10-14T21:13:59.730Z,14.40
2022-10-14T21:16:33.075Z,14.30
2022-10-14T21:19:06.933Z,14.30
2022-10-14T21:21:41.077Z,14.30
2022-10-14T21:24:12.756Z,14.30
2022-10-14T21:26:39.639Z,14.30
2022-10-14T21:29:06.540Z,14.30
2022-10-14T21:31:33.558Z,14.20
2022-10-14T21:34:06.158Z,14.20
2022-10-14T21:36:35.313Z,14.20
2022-10-14T21:39:13.397Z,14.20
2022-10-14T21:41:41.886Z,14.20
2022-10-14T21:44:13.265Z,14.20
2022-10-14T21:46:41.123Z,14.20
2022-10-14T21:49:10.549Z,14.20
2022-10-14T21:51:38.323Z,14.20
2022-10-14T21:54:06.168Z,14.20
2022-10-14T21:56:33.167Z,14.20
2022-10-14T21:59:00.090Z,14.20
2022-10-14T22:01:29.681Z,14.20
2022-10-14T22:04:04.077Z,14.20
2022-10-14T22:06:33.839Z,14.20
2022-10-14T22:09:04.283Z,14.20
2022-10-14T22:11:41.908Z,14.20
2022-10-14T22:14:14.818Z,14.20
2022-10-14T22:16:41.612Z,14.20
2022-10-14T22:19:09.644Z,14.20
2022-10-14T22:21:39.236Z,14.20
2022-10-14T22:26:35.528Z,14.20
2022-10-14T22:29:10.479Z,14.20
2022-10-14T22:31:37.733Z,14.20
2022-10-14T22:34:07.675Z,14.20
2022-10-14T22:36:35.878Z,14.20
2022-10-14T22:39:09.934Z,14.20
2022-10-14T22:41:36.777Z,14.20
2022-10-14T22:44:05.996Z,14.20
2022-10-14T22:46:36.903Z,14.20
2022-10-14T22:49:04.365Z,14.20
2022-10-14T22:51:36.381Z,14.20
2022-10-14T22:54:04.321Z,14.30
2022-10-14T22:56:32.604Z,14.20
2022-10-14T22:59:04.224Z,14.30
2022-10-14T23:01:31.897Z,14.30
2022-10-14T23:04:00.141Z,14.20
2022-10-14T23:06:28.541Z,14.20
2022-10-14T23:08:55.919Z,14.30
2022-10-14T23:11:24.947Z,14.30
2022-10-14T23:13:52.595Z,14.30
2022-10-14T23:16:26.042Z,14.30
2022-10-14T23:18:54.018Z,14.30
2022-10-14T23:21:24.784Z,14.30
2022-10-14T23:23:55.032Z,14.30
2022-10-14T23:26:26.055Z,14.30
2022-10-14T23:28:59.632Z,14.30
2022-10-14T23:31:31.158Z,14.30
2022-10-14T23:34:00.833Z,14.30
2022-10-14T23:36:28.361Z,14.30
2022-10-14T23:38:55.601Z,14.30
2022-10-14T23:41:23.891Z,14.30
2022-10-14T23:43:51.979Z,14.30
2022-10-14T23:46:20.128Z,14.30
2022-10-14T23:48:55.492Z,14.30
2022-10-14T23:51:41.315Z,14.30
2022-10-14T23:54:09.150Z,14.30
2022-10-14T23:56:36.003Z,14.30
2022-10-14T23:59:02.873Z,14.20
